createdAt,value
2018-12-02T00:01:11.303Z,59.16
2018-12-02T00:03:41.138Z,59.56
2018-12-02T00:06:11.051Z,59.51
2018-12-02T00:08:40.953Z,59.43
2018-12-02T00:11:10.897Z,59.78
2018-12-02T00:13:42.921Z,59.33
2018-12-02T00:16:12.797Z,59.71
2018-12-02T00:18:42.738Z,59.10
2018-12-02T00:21:12.713Z,59.48
2018-12-02T00:23:42.616Z,59.52
2018-12-02T00:26:12.513Z,59.20
2018-12-02T00:28:42.382Z,59.03
2018-12-02T00:31:12.303Z,59.46
2018-12-02T00:33:42.168Z,59.09
2018-12-02T00:36:12.035Z,58.78
2018-12-02T00:38:41.967Z,59.24
2018-12-02T00:41:11.837Z,59.36
2018-12-02T00:43:41.760Z,59.13
2018-12-02T00:46:11.637Z,59.40
2018-12-02T00:48:41.517Z,59.02
2018-12-02T00:51:11.368Z,59.05
2018-12-02T00:53:41.229Z,59.09
2018-12-02T00:56:09.964Z,59.49
2018-12-02T00:58:40.491Z,59.37
2018-12-02T01:01:10.506Z,59.00
2018-12-02T01:03:40.455Z,58.99
2018-12-02T01:06:11.226Z,59.21
2018-12-02T01:08:41.035Z,58.89
2018-12-02T01:11:10.950Z,59.10
2018-12-02T01:13:40.930Z,59.16
2018-12-02T01:16:11.961Z,59.32
2018-12-02T01:18:41.837Z,59.46
2018-12-02T01:21:12.324Z,58.79
2018-12-02T01:23:42.204Z,58.94
2018-12-02T01:26:12.104Z,59.07
2018-12-02T01:28:41.905Z,59.32
2018-12-02T01:31:11.801Z,59.34
2018-12-02T01:33:41.717Z,59.04
2018-12-02T01:36:11.813Z,59.09
2018-12-02T01:38:41.711Z,59.07
2018-12-02T01:41:11.677Z,59.03
2018-12-02T01:43:41.490Z,58.76
2018-12-02T01:46:11.350Z,58.64
2018-12-02T01:48:41.299Z,58.47
2018-12-02T01:51:11.178Z,58.37
2018-12-02T01:53:41.106Z,58.82
2018-12-02T01:56:10.953Z,58.68
2018-12-02T01:58:40.850Z,58.54
2018-12-02T02:01:10.719Z,58.79
2018-12-02T02:03:40.658Z,58.50
2018-12-02T02:06:10.774Z,58.57
2018-12-02T02:08:40.736Z,58.47
2018-12-02T02:11:10.608Z,58.55
2018-12-02T02:13:40.558Z,59.00
2018-12-02T02:16:10.391Z,58.67
2018-12-02T02:18:40.285Z,58.74
2018-12-02T02:21:10.101Z,58.60
2018-12-02T02:23:39.975Z,58.98
2018-12-02T02:26:09.963Z,58.47
2018-12-02T02:28:40.765Z,58.64
2018-12-02T02:31:10.622Z,58.49
2018-12-02T02:33:40.541Z,58.80
2018-12-02T02:36:10.350Z,59.01
2018-12-02T02:38:40.181Z,58.61
2018-12-02T02:41:10.021Z,58.56
2018-12-02T02:43:40.621Z,58.93
2018-12-02T02:46:10.421Z,59.00
2018-12-02T02:48:40.422Z,58.77
2018-12-02T02:51:10.319Z,58.73
2018-12-02T02:53:40.274Z,59.39
2018-12-02T02:56:10.747Z,58.89
2018-12-02T02:58:40.955Z,59.16
2018-12-02T03:01:10.767Z,58.76
2018-12-02T03:03:40.946Z,58.79
2018-12-02T03:06:10.799Z,58.51
2018-12-02T03:08:40.972Z,58.90
2018-12-02T03:11:10.853Z,58.83
2018-12-02T03:13:40.790Z,59.02
2018-12-02T03:16:10.692Z,59.00
2018-12-02T03:18:41.202Z,58.65
2018-12-02T03:21:11.032Z,58.70
2018-12-02T03:23:40.846Z,59.33
2018-12-02T03:26:10.763Z,58.72
2018-12-02T03:28:40.567Z,58.63
2018-12-02T03:31:10.395Z,58.50
2018-12-02T03:33:40.190Z,58.52
2018-12-02T03:36:10.087Z,58.70
2018-12-02T03:38:39.886Z,59.08
2018-12-02T03:41:09.701Z,58.70
2018-12-02T03:43:39.529Z,58.88
2018-12-02T03:46:09.664Z,58.97
2018-12-02T03:48:39.189Z,59.36
2018-12-02T03:51:09.160Z,59.38
2018-12-02T03:53:39.023Z,59.25
2018-12-02T03:56:08.900Z,59.19
2018-12-02T03:58:38.719Z,59.11
2018-12-02T04:01:08.520Z,59.28
2018-12-02T04:03:38.404Z,59.08
2018-12-02T04:06:08.225Z,59.25
2018-12-02T04:08:38.078Z,59.27
2018-12-02T04:11:08.477Z,59.07
2018-12-02T04:13:38.296Z,59.04
2018-12-02T04:16:08.111Z,58.70
2018-12-02T04:18:37.912Z,58.87
2018-12-02T04:21:08.142Z,58.88
2018-12-02T04:23:37.946Z,59.10
2018-12-02T04:26:07.742Z,59.07
2018-12-02T04:28:37.554Z,58.84
2018-12-02T04:31:07.372Z,59.01
2018-12-02T04:33:37.203Z,58.87
2018-12-02T04:36:07.036Z,58.52
2018-12-02T04:38:36.869Z,58.47
2018-12-02T04:41:07.127Z,58.61
2018-12-02T04:43:37.003Z,58.47
2018-12-02T04:46:06.872Z,58.84
2018-12-02T04:48:36.695Z,58.63
2018-12-02T04:51:06.859Z,58.53
2018-12-02T04:53:36.662Z,58.57
2018-12-02T04:56:06.525Z,59.30
2018-12-02T04:58:36.346Z,59.21
2018-12-02T05:01:06.567Z,59.47
2018-12-02T05:03:36.697Z,59.46
2018-12-02T05:06:06.557Z,59.66
2018-12-02T05:08:36.383Z,58.89
2018-12-02T05:11:06.541Z,59.22
2018-12-02T05:13:36.373Z,59.87
2018-12-02T05:16:06.297Z,59.53
2018-12-02T05:18:36.142Z,59.08
2018-12-02T05:21:06.057Z,58.67
2018-12-02T05:23:35.899Z,58.81
2018-12-02T05:26:05.935Z,58.24
2018-12-02T05:28:35.778Z,58.57
2018-12-02T05:31:05.941Z,58.54
2018-12-02T05:33:35.810Z,58.79
2018-12-02T05:36:06.037Z,58.43
2018-12-02T05:38:35.867Z,58.49
2018-12-02T05:41:06.071Z,58.63
2018-12-02T05:43:35.899Z,58.48
2018-12-02T05:46:06.541Z,58.63
2018-12-02T05:48:36.640Z,58.32
2018-12-02T05:51:06.805Z,58.72
2018-12-02T05:53:36.657Z,58.88
2018-12-02T05:56:06.582Z,58.58
2018-12-02T05:58:36.412Z,58.52
2018-12-02T06:01:06.277Z,58.76
2018-12-02T06:03:36.103Z,58.64
2018-12-02T06:06:06.012Z,58.27
2018-12-02T06:08:35.857Z,57.83
2018-12-02T06:11:05.789Z,57.59
2018-12-02T06:13:35.610Z,57.42
2018-12-02T06:16:05.985Z,58.02
2018-12-02T06:18:35.819Z,58.46
2018-12-02T06:21:06.008Z,58.33
2018-12-02T06:23:35.877Z,57.96
2018-12-02T06:26:05.945Z,57.82
2018-12-02T06:28:35.806Z,58.01
2018-12-02T06:31:05.657Z,58.20
2018-12-02T06:33:35.476Z,57.85
2018-12-02T06:36:05.634Z,57.16
2018-12-02T06:38:35.611Z,57.60
2018-12-02T06:41:05.969Z,57.52
2018-12-02T06:43:35.793Z,57.16
2018-12-02T06:46:06.107Z,57.49
2018-12-02T06:48:36.024Z,57.22
2018-12-02T06:51:06.341Z,57.03
2018-12-02T06:53:36.425Z,56.46
2018-12-02T06:56:27.674Z,56.79
2018-12-02T06:59:34.965Z,57.90
2018-12-02T07:02:32.944Z,57.25
2018-12-02T07:05:02.799Z,57.75
2018-12-02T07:07:32.689Z,57.79
2018-12-02T07:10:02.497Z,57.08
2018-12-02T07:12:32.306Z,57.93
2018-12-02T07:15:02.165Z,57.59
2018-12-02T07:17:36.003Z,57.19
2018-12-02T07:20:09.791Z,56.81
2018-12-02T07:22:43.217Z,57.31
2018-12-02T07:25:15.986Z,57.56
2018-12-02T07:27:45.882Z,57.20
2018-12-02T07:30:15.743Z,58.33
2018-12-02T07:32:45.559Z,58.39
2018-12-02T07:35:15.611Z,57.89
2018-12-02T07:37:48.129Z,57.89
2018-12-02T07:40:28.988Z,57.92
2018-12-02T07:42:59.237Z,58.13
2018-12-02T07:45:29.115Z,58.51
2018-12-02T07:47:58.956Z,58.31
2018-12-02T07:50:28.818Z,57.97
2018-12-02T07:52:58.661Z,57.49
2018-12-02T07:55:28.498Z,57.63
2018-12-02T07:57:58.305Z,57.13
2018-12-02T08:00:28.170Z,57.26
2018-12-02T08:02:58.012Z,56.86
2018-12-02T08:05:28.757Z,56.95
2018-12-02T08:07:58.591Z,58.29
2018-12-02T08:10:28.414Z,57.15
2018-12-02T08:12:58.253Z,58.36
2018-12-02T08:15:28.126Z,57.56
2018-12-02T08:17:57.958Z,57.68
2018-12-02T08:20:28.769Z,57.22
2018-12-02T08:22:58.594Z,58.07
2018-12-02T08:25:28.469Z,57.94
2018-12-02T08:27:58.653Z,57.72
2018-12-02T08:30:28.908Z,57.80
2018-12-02T08:32:58.826Z,58.35
2018-12-02T08:35:29.408Z,58.05
2018-12-02T08:38:02.156Z,58.50
2018-12-02T08:40:32.196Z,58.46
2018-12-02T08:43:02.131Z,58.84
2018-12-02T08:45:32.084Z,59.36
2018-12-02T08:48:02.028Z,58.43
2018-12-02T08:50:31.921Z,59.60
2018-12-02T08:53:01.798Z,58.66
2018-12-02T08:55:31.785Z,59.01
2018-12-02T08:58:01.659Z,59.16
2018-12-02T09:00:31.599Z,59.20
2018-12-02T09:03:04.117Z,59.11
2018-12-02T09:05:34.086Z,58.42
2018-12-02T09:08:04.275Z,58.73
2018-12-02T09:10:34.611Z,58.66
2018-12-02T09:13:07.327Z,58.22
2018-12-02T09:15:37.330Z,58.22
2018-12-02T09:18:09.186Z,58.47
2018-12-02T09:20:39.624Z,58.11
2018-12-02T09:23:10.849Z,58.60
2018-12-02T09:25:40.868Z,58.65
2018-12-02T09:28:10.821Z,58.67
2018-12-02T09:30:41.576Z,58.54
2018-12-02T09:33:11.505Z,57.81
2018-12-02T09:35:41.400Z,58.71
2018-12-02T09:38:11.262Z,58.67
2018-12-02T09:40:41.491Z,58.48
2018-12-02T09:43:11.388Z,58.70
2018-12-02T09:45:41.225Z,58.70
2018-12-02T09:48:11.094Z,58.48
2018-12-02T09:50:40.970Z,59.32
2018-12-02T09:53:10.842Z,58.96
2018-12-02T09:55:43.317Z,59.75
2018-12-02T09:58:20.869Z,59.28
2018-12-02T10:00:50.755Z,59.37
2018-12-02T10:03:20.653Z,60.03
2018-12-02T10:05:50.537Z,60.14
2018-12-02T10:08:20.479Z,60.15
2018-12-02T10:10:50.355Z,59.96
2018-12-02T10:13:24.605Z,60.26
2018-12-02T10:15:54.529Z,60.39
2018-12-02T10:18:24.402Z,60.74
2018-12-02T10:20:54.313Z,60.81
2018-12-02T10:23:24.187Z,61.01
2018-12-02T10:25:54.262Z,60.46
2018-12-02T10:28:24.156Z,60.52
2018-12-02T10:30:54.049Z,61.17
2018-12-02T10:33:24.237Z,60.58
2018-12-02T10:35:54.182Z,60.96
2018-12-02T10:38:24.043Z,60.51
2018-12-02T10:40:54.074Z,60.72
2018-12-02T10:43:23.899Z,60.78
2018-12-02T10:45:53.780Z,60.51
2018-12-02T10:48:23.674Z,60.15
2018-12-02T10:50:53.522Z,60.26
2018-12-02T10:53:23.532Z,60.29
2018-12-02T10:55:56.772Z,60.25
2018-12-02T10:58:28.988Z,59.94
2018-12-02T11:01:06.005Z,60.64
2018-12-02T11:03:35.934Z,60.93
2018-12-02T11:06:06.133Z,61.14
2018-12-02T11:08:36.058Z,60.74
2018-12-02T11:11:06.418Z,61.16
2018-12-02T11:13:36.267Z,60.82
2018-12-02T11:16:07.065Z,60.94
2018-12-02T11:18:36.979Z,60.66
2018-12-02T11:21:06.995Z,60.77
2018-12-02T11:23:37.013Z,60.97
2018-12-02T11:26:06.905Z,60.96
2018-12-02T11:28:36.862Z,61.00
2018-12-02T11:31:07.270Z,60.79
2018-12-02T11:33:37.195Z,61.06
2018-12-02T11:36:07.113Z,60.82
2018-12-02T11:38:37.041Z,60.55
2018-12-02T11:41:07.311Z,60.44
2018-12-02T11:43:37.189Z,60.49
2018-12-02T11:46:07.268Z,60.89
2018-12-02T11:48:37.124Z,60.93
2018-12-02T11:51:07.095Z,61.05
2018-12-02T11:53:36.981Z,60.49
2018-12-02T11:56:06.994Z,60.72
2018-12-02T11:58:36.921Z,60.64
2018-12-02T12:01:06.890Z,60.72
2018-12-02T12:03:36.823Z,60.90
2018-12-02T12:06:06.851Z,60.98
2018-12-02T12:08:36.749Z,61.30
2018-12-02T12:11:06.644Z,61.69
2018-12-02T12:13:36.547Z,61.90
2018-12-02T12:16:06.469Z,62.33
2018-12-02T12:18:36.417Z,61.98
2018-12-02T12:21:06.363Z,62.85
2018-12-02T12:23:36.290Z,63.09
2018-12-02T12:26:06.673Z,63.78
2018-12-02T12:28:36.605Z,63.54
2018-12-02T12:31:06.561Z,64.33
2018-12-02T12:33:36.492Z,64.30
2018-12-02T12:36:06.646Z,64.02
2018-12-02T12:38:36.607Z,64.11
2018-12-02T12:41:07.813Z,63.76
2018-12-02T12:43:39.219Z,63.52
2018-12-02T12:46:09.114Z,63.70
2018-12-02T12:48:39.009Z,63.36
2018-12-02T12:51:08.957Z,63.19
2018-12-02T12:53:38.981Z,63.33
2018-12-02T12:56:08.862Z,63.25
2018-12-02T12:58:38.871Z,62.84
2018-12-02T13:01:08.783Z,63.39
2018-12-02T13:03:38.667Z,63.20
2018-12-02T13:06:08.689Z,63.11
2018-12-02T13:08:38.640Z,63.25
2018-12-02T13:11:08.548Z,63.26
2018-12-02T13:13:38.410Z,63.08
2018-12-02T13:16:08.332Z,63.50
2018-12-02T13:18:38.179Z,63.17
2018-12-02T13:21:08.205Z,63.59
2018-12-02T13:23:38.025Z,63.39
2018-12-02T13:26:08.026Z,63.92
2018-12-02T13:28:37.985Z,63.73
2018-12-02T13:31:08.143Z,64.34
2018-12-02T13:33:38.061Z,63.98
2018-12-02T13:36:07.950Z,63.05
2018-12-02T13:38:37.943Z,63.07
2018-12-02T13:41:07.912Z,62.25
2018-12-02T13:43:37.797Z,62.32
2018-12-02T13:46:07.683Z,62.41
2018-12-02T13:48:37.784Z,62.07
2018-12-02T13:51:07.706Z,61.18
2018-12-02T13:53:43.007Z,60.50
2018-12-02T13:56:12.965Z,60.39
2018-12-02T13:58:42.932Z,59.74
2018-12-02T14:01:12.826Z,60.20
2018-12-02T14:03:42.784Z,60.15
2018-12-02T14:06:12.681Z,60.04
2018-12-02T14:08:42.569Z,59.72
2018-12-02T14:11:12.418Z,59.41
2018-12-02T14:13:42.337Z,59.33
2018-12-02T14:16:48.139Z,59.31
2018-12-02T14:19:18.211Z,59.53
2018-12-02T14:21:48.188Z,59.02
2018-12-02T14:24:18.080Z,59.26
2018-12-02T14:26:48.254Z,59.00
2018-12-02T14:29:34.940Z,58.79
2018-12-02T14:32:08.485Z,58.86
2018-12-02T14:34:38.404Z,58.22
2018-12-02T14:37:08.372Z,58.45
2018-12-02T14:39:38.393Z,57.90
2018-12-02T14:42:08.269Z,58.47
2018-12-02T14:44:38.290Z,59.02
2018-12-02T14:47:08.261Z,59.02
2018-12-02T14:49:38.216Z,58.41
2018-12-02T14:52:08.228Z,58.39
2018-12-02T14:54:38.263Z,57.86
2018-12-02T14:57:08.186Z,57.82
2018-12-02T14:59:38.134Z,57.94
2018-12-02T15:02:08.169Z,57.87
2018-12-02T15:04:38.109Z,57.72
2018-12-02T15:07:08.036Z,57.95
2018-12-02T15:09:37.974Z,58.07
2018-12-02T15:12:07.966Z,57.62
2018-12-02T15:14:37.968Z,57.28
2018-12-02T15:17:07.874Z,57.24
2018-12-02T15:19:37.779Z,57.40
2018-12-02T15:22:07.872Z,57.32
2018-12-02T15:24:37.799Z,57.18
2018-12-02T15:27:07.658Z,57.00
2018-12-02T15:29:37.638Z,56.94
2018-12-02T15:32:07.658Z,57.28
2018-12-02T15:34:37.556Z,56.76
2018-12-02T15:37:07.523Z,56.91
2018-12-02T15:39:37.474Z,57.16
2018-12-02T15:42:07.430Z,57.05
2018-12-02T15:44:37.302Z,57.19
2018-12-02T15:47:07.209Z,57.49
2018-12-02T15:49:37.067Z,57.40
2018-12-02T15:52:07.314Z,57.64
2018-12-02T15:54:37.182Z,57.72
2018-12-02T15:57:07.139Z,57.99
2018-12-02T15:59:37.069Z,58.44
2018-12-02T16:02:07.283Z,58.71
2018-12-02T16:04:37.178Z,58.25
2018-12-02T16:07:07.154Z,58.38
2018-12-02T16:09:37.058Z,58.44
2018-12-02T16:12:07.162Z,58.63
2018-12-02T16:14:37.275Z,58.26
2018-12-02T16:17:07.557Z,58.77
2018-12-02T16:19:37.556Z,58.23
2018-12-02T16:22:07.962Z,58.36
2018-12-02T16:24:37.872Z,58.22
2018-12-02T16:27:07.781Z,58.25
2018-12-02T16:29:37.718Z,58.03
2018-12-02T16:32:07.686Z,57.98
2018-12-02T16:34:37.581Z,58.11
2018-12-02T16:37:07.521Z,58.20
2018-12-02T16:39:37.436Z,57.84
2018-12-02T16:42:07.375Z,57.66
2018-12-02T16:44:37.256Z,58.12
2018-12-02T16:47:07.161Z,57.86
2018-12-02T16:49:37.064Z,57.73
2018-12-02T16:52:07.124Z,57.81
2018-12-02T16:54:37.278Z,57.58
2018-12-02T16:57:09.283Z,57.47
2018-12-02T16:59:39.166Z,57.84
2018-12-02T17:02:10.373Z,57.50
2018-12-02T17:04:40.400Z,57.22
2018-12-02T17:07:10.313Z,57.44
2018-12-02T17:09:40.342Z,57.58
2018-12-02T17:12:10.273Z,57.36
2018-12-02T17:14:40.223Z,57.82
2018-12-02T17:17:10.166Z,57.55
2018-12-02T17:19:40.447Z,57.30
2018-12-02T17:22:10.460Z,57.97
2018-12-02T17:24:40.373Z,57.62
2018-12-02T17:27:10.262Z,57.92
2018-12-02T17:29:41.522Z,57.84
2018-12-02T17:32:12.952Z,57.46
2018-12-02T17:34:42.842Z,57.60
2018-12-02T17:37:12.754Z,57.83
2018-12-02T17:39:49.441Z,58.35
2018-12-02T17:42:19.337Z,58.12
2018-12-02T17:44:49.276Z,58.70
2018-12-02T17:47:19.490Z,58.99
2018-12-02T17:49:49.425Z,59.78
2018-12-02T17:52:19.406Z,60.11
2018-12-02T17:54:49.384Z,60.82
2018-12-02T17:57:19.574Z,61.04
2018-12-02T17:59:49.515Z,61.03
2018-12-02T18:02:19.752Z,61.12
2018-12-02T18:04:49.718Z,61.01
2018-12-02T18:07:19.724Z,60.68
2018-12-02T18:09:49.825Z,60.83
2018-12-02T18:12:19.793Z,60.80
2018-12-02T18:14:49.674Z,60.84
2018-12-02T18:17:19.629Z,60.54
2018-12-02T18:19:49.565Z,60.24
2018-12-02T18:22:19.678Z,60.30
2018-12-02T18:24:49.935Z,60.20
2018-12-02T18:27:19.921Z,59.72
2018-12-02T18:29:50.520Z,59.92
2018-12-02T18:32:20.607Z,59.62
2018-12-02T18:34:50.636Z,59.98
2018-12-02T18:37:20.673Z,59.55
2018-12-02T18:39:51.042Z,59.83
2018-12-02T18:42:21.165Z,59.60
2018-12-02T18:44:51.203Z,59.44
2018-12-02T18:47:21.258Z,59.58
2018-12-02T18:49:51.333Z,59.17
2018-12-02T18:52:21.328Z,59.40
2018-12-02T18:54:51.360Z,59.27
2018-12-02T18:57:21.400Z,59.10
2018-12-02T18:59:51.468Z,58.52
2018-12-02T19:02:21.540Z,58.71
2018-12-02T19:04:51.553Z,58.52
2018-12-02T19:07:21.580Z,58.63
2018-12-02T19:09:51.626Z,59.11
2018-12-02T19:12:22.909Z,58.92
2018-12-02T19:14:52.966Z,58.44
2018-12-02T19:17:23.009Z,58.39
2018-12-02T19:19:53.114Z,58.14
2018-12-02T19:22:22.879Z,58.61
2018-12-02T19:24:53.093Z,58.40
2018-12-02T19:27:23.289Z,58.40
2018-12-02T19:29:53.493Z,58.27
2018-12-02T19:32:23.563Z,58.20
2018-12-02T19:34:53.894Z,58.41
2018-12-02T19:37:24.092Z,57.98
2018-12-02T19:39:54.196Z,58.49
2018-12-02T19:42:24.334Z,58.18
2018-12-02T19:44:54.493Z,58.48
2018-12-02T19:47:24.554Z,58.06
2018-12-02T19:49:54.703Z,58.34
2018-12-02T19:52:24.757Z,58.25
2018-12-02T19:54:55.031Z,57.81
2018-12-02T19:57:25.135Z,57.97
2018-12-02T19:59:55.262Z,58.09
2018-12-02T20:02:25.435Z,57.84
2018-12-02T20:04:55.719Z,57.80
2018-12-02T20:07:25.905Z,57.72
2018-12-02T20:09:56.110Z,57.70
2018-12-02T20:12:26.392Z,57.74
2018-12-02T20:14:56.509Z,57.66
2018-12-02T20:17:26.860Z,57.59
2018-12-02T20:20:02.238Z,57.65
2018-12-02T20:22:33.321Z,57.75
2018-12-02T20:25:03.913Z,57.40
2018-12-02T20:27:34.149Z,57.84
2018-12-02T20:30:06.581Z,57.45
2018-12-02T20:32:36.651Z,57.46
2018-12-02T20:35:09.830Z,57.31
2018-12-02T20:37:40.563Z,57.41
2018-12-02T20:40:12.759Z,57.51
2018-12-02T20:42:43.024Z,57.53
2018-12-02T20:45:14.484Z,57.73
2018-12-02T20:47:45.504Z,57.58
2018-12-02T20:50:17.541Z,57.43
2018-12-02T20:52:48.449Z,57.82
2018-12-02T20:55:23.063Z,57.73
2018-12-02T20:57:55.787Z,58.21
2018-12-02T21:00:26.800Z,58.12
2018-12-02T21:03:03.020Z,58.28
2018-12-02T21:05:35.880Z,57.87
2018-12-02T21:08:06.804Z,58.37
2018-12-02T21:10:36.771Z,57.85
2018-12-02T21:13:06.894Z,58.55
2018-12-02T21:15:37.873Z,58.38
2018-12-02T21:18:08.090Z,58.14
2018-12-02T21:20:38.518Z,58.93
2018-12-02T21:23:08.586Z,59.56
2018-12-02T21:25:40.241Z,59.31
2018-12-02T21:28:11.795Z,59.69
2018-12-02T21:30:42.615Z,59.75
2018-12-02T21:33:12.861Z,60.36
2018-12-02T21:35:43.122Z,60.45
2018-12-02T21:38:13.330Z,60.50
2018-12-02T21:40:43.449Z,60.48
2018-12-02T21:43:14.095Z,61.43
2018-12-02T21:45:51.538Z,61.67
2018-12-02T21:48:22.339Z,61.95
2018-12-02T21:50:55.766Z,61.95
2018-12-02T21:53:26.046Z,62.19
2018-12-02T21:55:56.128Z,62.72
2018-12-02T21:58:26.608Z,62.66
2018-12-02T22:01:02.778Z,63.10
2018-12-02T22:03:32.976Z,62.77
2018-12-02T22:06:03.086Z,63.26
2018-12-02T22:08:33.068Z,63.15
2018-12-02T22:11:03.195Z,63.39
2018-12-02T22:13:33.206Z,63.43
2018-12-02T22:16:03.246Z,63.52
2018-12-02T22:18:33.205Z,63.70
2018-12-02T22:21:03.367Z,63.19
2018-12-02T22:23:33.310Z,63.64
2018-12-02T22:26:03.357Z,63.47
2018-12-02T22:28:33.404Z,63.32
2018-12-02T22:31:03.517Z,63.56
2018-12-02T22:33:33.893Z,63.63
2018-12-02T22:36:03.896Z,64.45
2018-12-02T22:38:34.599Z,64.39
2018-12-02T22:41:06.835Z,64.21
2018-12-02T22:43:36.690Z,64.61
2018-12-02T22:46:07.141Z,64.34
2018-12-02T22:48:37.073Z,64.41
2018-12-02T22:51:07.139Z,64.69
2018-12-02T22:53:37.515Z,64.56
2018-12-02T22:56:07.545Z,64.58
2018-12-02T22:58:37.649Z,64.44
2018-12-02T23:01:12.984Z,64.47
2018-12-02T23:03:42.991Z,64.44
2018-12-02T23:06:13.899Z,64.96
2018-12-02T23:08:43.909Z,65.02
2018-12-02T23:11:14.325Z,64.90
2018-12-02T23:13:44.388Z,64.89
2018-12-02T23:16:14.492Z,64.78
2018-12-02T23:18:44.419Z,64.79
2018-12-02T23:21:14.368Z,64.63
2018-12-02T23:23:44.225Z,65.13
2018-12-02T23:26:14.377Z,64.80
2018-12-02T23:28:45.382Z,64.94
2018-12-02T23:31:15.635Z,64.83
2018-12-02T23:33:45.745Z,64.61
2018-12-02T23:36:15.666Z,64.98
2018-12-02T23:38:46.032Z,64.82
2018-12-02T23:41:16.026Z,64.63
2018-12-02T23:43:46.020Z,64.87
2018-12-02T23:46:17.217Z,64.46
2018-12-02T23:48:47.879Z,64.30
2018-12-02T23:51:18.619Z,64.60
2018-12-02T23:53:48.511Z,64.50
2018-12-02T23:56:18.459Z,64.40
2018-12-02T23:58:48.334Z,64.71
